sensor_id;sensor_type;location;lat;lon;timestamp;temperature;humidity
21123;DHT22;10719;48.130;11.630;2022-12-18T00:00:42;-5.10;99.90
21123;DHT22;10719;48.130;11.630;2022-12-18T00:03:08;-5.10;99.90
21123;DHT22;10719;48.130;11.630;2022-12-18T00:05:33;-4.90;99.90
21123;DHT22;10719;48.130;11.630;2022-12-18T00:07:59;-5.00;99.90
21123;DHT22;10719;48.130;11.630;2022-12-18T00:10:24;-5.10;99.90
21123;DHT22;10719;48.130;11.630;2022-12-18T00:12:50;-5.20;99.90
21123;DHT22;10719;48.130;11.630;2022-12-18T00:15:16;-5.30;99.90
21123;DHT22;10719;48.130;11.630;2022-12-18T00:17:41;-5.40;99.90
21123;DHT22;10719;48.130;11.630;2022-12-18T00:20:07;-5.40;99.90
21123;DHT22;10719;48.130;11.630;2022-12-18T00:22:33;-5.30;99.90
21123;DHT22;10719;48.130;11.630;2022-12-18T00:24:59;-5.20;99.90
21123;DHT22;10719;48.130;11.630;2022-12-18T00:27:24;-5.20;99.90
21123;DHT22;10719;48.130;11.630;2022-12-18T00:29:50;-5.20;99.90
21123;DHT22;10719;48.130;11.630;2022-12-18T00:32:15;-5.20;99.90
21123;DHT22;10719;48.130;11.630;2022-12-18T00:34:41;-5.30;99.90
21123;DHT22;10719;48.130;11.630;2022-12-18T00:37:07;-5.30;99.90
21123;DHT22;10719;48.130;11.630;2022-12-18T00:39:32;-5.10;99.90
21123;DHT22;10719;48.130;11.630;2022-12-18T00:41:58;-5.10;99.90
21123;DHT22;10719;48.130;11.630;2022-12-18T00:44:42;-5.20;99.90
21123;DHT22;10719;48.130;11.630;2022-12-18T00:47:08;-5.00;99.90
21123;DHT22;10719;48.130;11.630;2022-12-18T00:49:33;-5.00;99.90
21123;DHT22;10719;48.130;11.630;2022-12-18T00:52:00;-5.20;99.90
21123;DHT22;10719;48.130;11.630;2022-12-18T00:54:26;-5.30;99.90
21123;DHT22;10719;48.130;11.630;2022-12-18T00:56:51;-5.10;99.90
21123;DHT22;10719;48.130;11.630;2022-12-18T00:59:18;-5.20;99.90
21123;DHT22;10719;48.130;11.630;2022-12-18T01:01:43;-5.30;99.90
21123;DHT22;10719;48.130;11.630;2022-12-18T01:04:10;-5.20;99.90
21123;DHT22;10719;48.130;11.630;2022-12-18T01:06:35;-5.20;99.90
21123;DHT22;10719;48.130;11.630;2022-12-18T01:09:01;-5.40;99.90
21123;DHT22;10719;48.130;11.630;2022-12-18T01:11:27;-5.50;99.90
21123;DHT22;10719;48.130;11.630;2022-12-18T01:13:54;-5.40;99.90
21123;DHT22;10719;48.130;11.630;2022-12-18T01:16:20;-5.40;99.90
21123;DHT22;10719;48.130;11.630;2022-12-18T01:18:46;-5.30;99.90
21123;DHT22;10719;48.130;11.630;2022-12-18T01:21:14;-5.20;99.90
21123;DHT22;10719;48.130;11.630;2022-12-18T01:23:40;-5.20;99.90
21123;DHT22;10719;48.130;11.630;2022-12-18T01:26:08;-5.20;99.90
21123;DHT22;10719;48.130;11.630;2022-12-18T01:28:34;-5.40;99.90
21123;DHT22;10719;48.130;11.630;2022-12-18T01:31:19;-5.40;99.90
21123;DHT22;10719;48.130;11.630;2022-12-18T01:33:49;-5.30;99.90
21123;DHT22;10719;48.130;11.630;2022-12-18T01:36:26;-5.20;99.90
21123;DHT22;10719;48.130;11.630;2022-12-18T01:38:52;-5.20;99.90
21123;DHT22;10719;48.130;11.630;2022-12-18T01:41:24;-5.30;99.90
21123;DHT22;10719;48.130;11.630;2022-12-18T01:43:54;-5.30;99.90
21123;DHT22;10719;48.130;11.630;2022-12-18T01:46:26;-5.40;99.90
21123;DHT22;10719;48.130;11.630;2022-12-18T01:49:00;-5.40;99.90
21123;DHT22;10719;48.130;11.630;2022-12-18T01:51:27;-5.40;99.90
21123;DHT22;10719;48.130;11.630;2022-12-18T01:53:54;-5.30;99.90
21123;DHT22;10719;48.130;11.630;2022-12-18T01:56:21;-5.30;99.90
21123;DHT22;10719;48.130;11.630;2022-12-18T01:59:00;-5.30;99.90
21123;DHT22;10719;48.130;11.630;2022-12-18T02:01:26;-5.30;99.90
21123;DHT22;10719;48.130;11.630;2022-12-18T02:03:53;-5.30;99.90
21123;DHT22;10719;48.130;11.630;2022-12-18T02:06:36;-5.10;99.90
21123;DHT22;10719;48.130;11.630;2022-12-18T02:09:12;-5.10;99.90
21123;DHT22;10719;48.130;11.630;2022-12-18T02:12:13;-5.10;99.90
21123;DHT22;10719;48.130;11.630;2022-12-18T02:17:42;-5.10;99.90
21123;DHT22;10719;48.130;11.630;2022-12-18T02:20:20;-5.20;99.90
21123;DHT22;10719;48.130;11.630;2022-12-18T02:23:00;-5.00;99.90
21123;DHT22;10719;48.130;11.630;2022-12-18T02:28:08;-5.00;99.90
21123;DHT22;10719;48.130;11.630;2022-12-18T02:30:37;-5.00;99.90
21123;DHT22;10719;48.130;11.630;2022-12-18T02:33:06;-5.20;99.90
21123;DHT22;10719;48.130;11.630;2022-12-18T02:35:34;-5.10;99.90
21123;DHT22;10719;48.130;11.630;2022-12-18T02:38:01;-5.20;99.90
21123;DHT22;10719;48.130;11.630;2022-12-18T02:40:28;-5.30;99.90
21123;DHT22;10719;48.130;11.630;2022-12-18T02:42:55;-5.20;99.90
21123;DHT22;10719;48.130;11.630;2022-12-18T02:45:20;-5.10;99.90
21123;DHT22;10719;48.130;11.630;2022-12-18T02:47:48;-5.00;99.90
21123;DHT22;10719;48.130;11.630;2022-12-18T02:50:29;-5.00;99.90
21123;DHT22;10719;48.130;11.630;2022-12-18T03:00:48;-5.10;99.90
21123;DHT22;10719;48.130;11.630;2022-12-18T03:03:28;-5.00;99.90
21123;DHT22;10719;48.130;11.630;2022-12-18T03:06:20;-5.10;99.90
21123;DHT22;10719;48.130;11.630;2022-12-18T03:08:52;-5.10;99.90
21123;DHT22;10719;48.130;11.630;2022-12-18T03:11:19;-5.10;99.90
21123;DHT22;10719;48.130;11.630;2022-12-18T03:14:07;-5.10;99.90
21123;DHT22;10719;48.130;11.630;2022-12-18T03:16:34;-5.10;99.90
21123;DHT22;10719;48.130;11.630;2022-12-18T03:19:03;-5.30;99.90
21123;DHT22;10719;48.130;11.630;2022-12-18T03:21:40;-5.20;99.90
21123;DHT22;10719;48.130;11.630;2022-12-18T03:24:08;-5.30;99.90
21123;DHT22;10719;48.130;11.630;2022-12-18T03:26:35;-5.20;99.90
21123;DHT22;10719;48.130;11.630;2022-12-18T03:29:13;-5.10;99.90
21123;DHT22;10719;48.130;11.630;2022-12-18T03:31:45;-5.10;99.90
21123;DHT22;10719;48.130;11.630;2022-12-18T03:34:19;-5.10;99.90
21123;DHT22;10719;48.130;11.630;2022-12-18T03:36:47;-5.10;99.90
21123;DHT22;10719;48.130;11.630;2022-12-18T03:39:13;-5.20;99.90
21123;DHT22;10719;48.130;11.630;2022-12-18T03:44:42;-5.10;99.90
21123;DHT22;10719;48.130;11.630;2022-12-18T03:47:36;-5.10;99.90
21123;DHT22;10719;48.130;11.630;2022-12-18T03:55:12;-5.00;99.90
21123;DHT22;10719;48.130;11.630;2022-12-18T03:57:38;-4.90;99.90
21123;DHT22;10719;48.130;11.630;2022-12-18T04:00:11;-5.10;99.90
21123;DHT22;10719;48.130;11.630;2022-12-18T04:02:38;-5.10;99.90
21123;DHT22;10719;48.130;11.630;2022-12-18T04:05:07;-5.10;99.90
21123;DHT22;10719;48.130;11.630;2022-12-18T04:07:33;-5.10;99.90
21123;DHT22;10719;48.130;11.630;2022-12-18T04:10:01;-5.00;99.90
21123;DHT22;10719;48.130;11.630;2022-12-18T04:12:29;-5.10;99.90
21123;DHT22;10719;48.130;11.630;2022-12-18T04:14:55;-5.20;99.90
21123;DHT22;10719;48.130;11.630;2022-12-18T04:17:20;-5.00;99.90
21123;DHT22;10719;48.130;11.630;2022-12-18T04:19:46;-5.10;99.90
21123;DHT22;10719;48.130;11.630;2022-12-18T04:22:12;-5.20;99.90
21123;DHT22;10719;48.130;11.630;2022-12-18T04:24:38;-5.20;99.90
21123;DHT22;10719;48.130;11.630;2022-12-18T04:27:03;-5.20;99.90
21123;DHT22;10719;48.130;11.630;2022-12-18T04:29:29;-5.20;99.90
21123;DHT22;10719;48.130;11.630;2022-12-18T04:31:55;-5.20;99.90
21123;DHT22;10719;48.130;11.630;2022-12-18T04:34:20;-5.10;99.90
21123;DHT22;10719;48.130;11.630;2022-12-18T04:36:46;-5.00;99.90
21123;DHT22;10719;48.130;11.630;2022-12-18T04:39:12;-5.00;99.90
21123;DHT22;10719;48.130;11.630;2022-12-18T04:41:38;-5.10;99.90
21123;DHT22;10719;48.130;11.630;2022-12-18T04:44:04;-5.10;99.90
21123;DHT22;10719;48.130;11.630;2022-12-18T04:46:29;-5.20;99.90
21123;DHT22;10719;48.130;11.630;2022-12-18T04:48:55;-5.10;99.90
21123;DHT22;10719;48.130;11.630;2022-12-18T04:51:21;-5.00;99.90
21123;DHT22;10719;48.130;11.630;2022-12-18T04:53:46;-5.10;99.90
21123;DHT22;10719;48.130;11.630;2022-12-18T04:56:14;-5.20;99.90
21123;DHT22;10719;48.130;11.630;2022-12-18T04:58:41;-5.10;99.90
21123;DHT22;10719;48.130;11.630;2022-12-18T05:01:08;-5.10;99.90
21123;DHT22;10719;48.130;11.630;2022-12-18T05:03:34;-4.90;99.90
21123;DHT22;10719;48.130;11.630;2022-12-18T05:06:00;-4.90;99.90
21123;DHT22;10719;48.130;11.630;2022-12-18T05:08:26;-5.00;99.90
21123;DHT22;10719;48.130;11.630;2022-12-18T05:11:03;-5.00;99.90
21123;DHT22;10719;48.130;11.630;2022-12-18T05:13:30;-4.90;99.90
21123;DHT22;10719;48.130;11.630;2022-12-18T05:15:56;-4.90;99.90
21123;DHT22;10719;48.130;11.630;2022-12-18T05:18:22;-5.00;99.90
21123;DHT22;10719;48.130;11.630;2022-12-18T05:20:50;-4.90;99.90
21123;DHT22;10719;48.130;11.630;2022-12-18T05:23:15;-4.90;99.90
21123;DHT22;10719;48.130;11.630;2022-12-18T05:25:41;-4.90;99.90
21123;DHT22;10719;48.130;11.630;2022-12-18T05:28:07;-5.00;99.90
21123;DHT22;10719;48.130;11.630;2022-12-18T05:30:32;-5.10;99.90
21123;DHT22;10719;48.130;11.630;2022-12-18T05:32:58;-5.00;99.90
21123;DHT22;10719;48.130;11.630;2022-12-18T05:35:23;-5.00;99.90
21123;DHT22;10719;48.130;11.630;2022-12-18T05:37:49;-5.00;99.90
21123;DHT22;10719;48.130;11.630;2022-12-18T05:40:14;-4.90;99.90
21123;DHT22;10719;48.130;11.630;2022-12-18T05:42:40;-4.90;99.90
21123;DHT22;10719;48.130;11.630;2022-12-18T05:45:06;-4.80;99.90
21123;DHT22;10719;48.130;11.630;2022-12-18T05:47:32;-4.90;99.90
21123;DHT22;10719;48.130;11.630;2022-12-18T05:49:57;-5.00;99.90
21123;DHT22;10719;48.130;11.630;2022-12-18T05:52:24;-5.00;99.90
21123;DHT22;10719;48.130;11.630;2022-12-18T05:54:49;-5.10;99.90
21123;DHT22;10719;48.130;11.630;2022-12-18T05:57:15;-5.10;99.90
21123;DHT22;10719;48.130;11.630;2022-12-18T05:59:41;-4.90;99.90
21123;DHT22;10719;48.130;11.630;2022-12-18T06:02:06;-4.90;99.90
21123;DHT22;10719;48.130;11.630;2022-12-18T06:04:32;-4.90;99.90
21123;DHT22;10719;48.130;11.630;2022-12-18T06:06:58;-4.90;99.90
21123;DHT22;10719;48.130;11.630;2022-12-18T06:09:24;-4.90;99.90
21123;DHT22;10719;48.130;11.630;2022-12-18T06:11:51;-5.00;99.90
21123;DHT22;10719;48.130;11.630;2022-12-18T06:14:17;-5.00;99.90
21123;DHT22;10719;48.130;11.630;2022-12-18T06:16:43;-4.90;99.90
21123;DHT22;10719;48.130;11.630;2022-12-18T06:19:15;-4.80;99.90
21123;DHT22;10719;48.130;11.630;2022-12-18T06:21:40;-4.80;99.90
21123;DHT22;10719;48.130;11.630;2022-12-18T06:24:06;-4.80;99.90
21123;DHT22;10719;48.130;11.630;2022-12-18T06:26:32;-4.90;99.90
21123;DHT22;10719;48.130;11.630;2022-12-18T06:28:58;-5.00;99.90
21123;DHT22;10719;48.130;11.630;2022-12-18T06:31:23;-5.00;99.90
21123;DHT22;10719;48.130;11.630;2022-12-18T06:33:49;-4.90;99.90
21123;DHT22;10719;48.130;11.630;2022-12-18T06:36:15;-4.90;99.90
21123;DHT22;10719;48.130;11.630;2022-12-18T06:38:43;-4.90;99.90
21123;DHT22;10719;48.130;11.630;2022-12-18T06:41:14;-5.00;99.90
21123;DHT22;10719;48.130;11.630;2022-12-18T06:43:40;-5.00;99.90
21123;DHT22;10719;48.130;11.630;2022-12-18T06:46:08;-4.90;99.90
21123;DHT22;10719;48.130;11.630;2022-12-18T06:48:34;-5.00;99.90
21123;DHT22;10719;48.130;11.630;2022-12-18T06:51:00;-5.00;99.90
21123;DHT22;10719;48.130;11.630;2022-12-18T06:53:26;-5.00;99.90
21123;DHT22;10719;48.130;11.630;2022-12-18T06:55:52;-5.00;99.90
21123;DHT22;10719;48.130;11.630;2022-12-18T06:58:17;-5.00;99.90
21123;DHT22;10719;48.130;11.630;2022-12-18T07:00:43;-5.10;99.90
21123;DHT22;10719;48.130;11.630;2022-12-18T07:03:09;-5.20;99.90
21123;DHT22;10719;48.130;11.630;2022-12-18T07:05:39;-5.20;99.90
21123;DHT22;10719;48.130;11.630;2022-12-18T07:08:06;-5.20;99.90
21123;DHT22;10719;48.130;11.630;2022-12-18T07:10:31;-5.10;99.90
21123;DHT22;10719;48.130;11.630;2022-12-18T07:12:57;-5.00;99.90
21123;DHT22;10719;48.130;11.630;2022-12-18T07:15:22;-5.20;99.90
21123;DHT22;10719;48.130;11.630;2022-12-18T07:17:48;-5.20;99.90
21123;DHT22;10719;48.130;11.630;2022-12-18T07:20:13;-5.10;99.90
21123;DHT22;10719;48.130;11.630;2022-12-18T07:22:39;-5.10;99.90
21123;DHT22;10719;48.130;11.630;2022-12-18T07:25:05;-5.10;99.90
21123;DHT22;10719;48.130;11.630;2022-12-18T07:27:31;-5.00;99.90
21123;DHT22;10719;48.130;11.630;2022-12-18T07:29:57;-4.90;99.90
21123;DHT22;10719;48.130;11.630;2022-12-18T07:32:22;-4.90;99.90
21123;DHT22;10719;48.130;11.630;2022-12-18T07:34:48;-5.00;99.90
21123;DHT22;10719;48.130;11.630;2022-12-18T07:37:14;-5.00;99.90
21123;DHT22;10719;48.130;11.630;2022-12-18T07:39:39;-4.90;99.90
21123;DHT22;10719;48.130;11.630;2022-12-18T07:42:05;-5.00;99.90
21123;DHT22;10719;48.130;11.630;2022-12-18T07:44:49;-4.90;99.90
21123;DHT22;10719;48.130;11.630;2022-12-18T07:47:14;-4.90;99.90
21123;DHT22;10719;48.130;11.630;2022-12-18T07:49:40;-4.90;99.90
21123;DHT22;10719;48.130;11.630;2022-12-18T07:52:05;-4.90;99.90
21123;DHT22;10719;48.130;11.630;2022-12-18T07:54:31;-4.90;99.90
21123;DHT22;10719;48.130;11.630;2022-12-18T07:56:57;-5.10;99.90
21123;DHT22;10719;48.130;11.630;2022-12-18T07:59:22;-5.20;99.90
21123;DHT22;10719;48.130;11.630;2022-12-18T08:01:48;-5.30;99.90
21123;DHT22;10719;48.130;11.630;2022-12-18T08:04:13;-5.30;99.90
21123;DHT22;10719;48.130;11.630;2022-12-18T08:06:39;-5.10;99.90
21123;DHT22;10719;48.130;11.630;2022-12-18T08:09:04;-5.00;99.90
21123;DHT22;10719;48.130;11.630;2022-12-18T08:11:30;-4.90;99.90
21123;DHT22;10719;48.130;11.630;2022-12-18T08:13:57;-4.90;99.90
21123;DHT22;10719;48.130;11.630;2022-12-18T08:16:23;-4.90;99.90
21123;DHT22;10719;48.130;11.630;2022-12-18T08:18:49;-4.80;99.90
21123;DHT22;10719;48.130;11.630;2022-12-18T08:21:19;-4.80;99.90
21123;DHT22;10719;48.130;11.630;2022-12-18T08:23:47;-4.90;99.90
21123;DHT22;10719;48.130;11.630;2022-12-18T08:26:13;-4.90;99.90
21123;DHT22;10719;48.130;11.630;2022-12-18T08:28:39;-4.90;99.90
21123;DHT22;10719;48.130;11.630;2022-12-18T08:31:05;-4.90;99.90
21123;DHT22;10719;48.130;11.630;2022-12-18T08:33:31;-4.70;99.90
21123;DHT22;10719;48.130;11.630;2022-12-18T08:35:58;-4.60;99.90
21123;DHT22;10719;48.130;11.630;2022-12-18T08:38:24;-4.70;99.90
21123;DHT22;10719;48.130;11.630;2022-12-18T08:41:04;-4.90;99.90
21123;DHT22;10719;48.130;11.630;2022-12-18T08:43:30;-4.90;99.90
21123;DHT22;10719;48.130;11.630;2022-12-18T08:46:16;-4.80;99.90
21123;DHT22;10719;48.130;11.630;2022-12-18T08:48:41;-4.90;99.90
21123;DHT22;10719;48.130;11.630;2022-12-18T08:51:07;-4.70;99.90
21123;DHT22;10719;48.130;11.630;2022-12-18T08:53:35;-4.80;99.90
21123;DHT22;10719;48.130;11.630;2022-12-18T08:56:00;-4.90;99.90
21123;DHT22;10719;48.130;11.630;2022-12-18T08:58:26;-4.80;99.90
21123;DHT22;10719;48.130;11.630;2022-12-18T09:00:51;-4.90;99.90
21123;DHT22;10719;48.130;11.630;2022-12-18T09:03:19;-4.80;99.90
21123;DHT22;10719;48.130;11.630;2022-12-18T09:05:47;-4.90;99.90
21123;DHT22;10719;48.130;11.630;2022-12-18T09:08:13;-4.90;99.90
21123;DHT22;10719;48.130;11.630;2022-12-18T09:10:46;-4.80;99.90
21123;DHT22;10719;48.130;11.630;2022-12-18T09:13:13;-5.00;99.90
21123;DHT22;10719;48.130;11.630;2022-12-18T09:15:54;-4.80;99.90
21123;DHT22;10719;48.130;11.630;2022-12-18T09:18:22;-4.90;99.90
21123;DHT22;10719;48.130;11.630;2022-12-18T09:20:48;-4.90;99.90
21123;DHT22;10719;48.130;11.630;2022-12-18T09:23:14;-5.00;99.90
21123;DHT22;10719;48.130;11.630;2022-12-18T09:25:39;-4.90;99.90
21123;DHT22;10719;48.130;11.630;2022-12-18T09:28:10;-4.80;99.90
21123;DHT22;10719;48.130;11.630;2022-12-18T09:30:43;-4.70;99.90
21123;DHT22;10719;48.130;11.630;2022-12-18T09:33:09;-4.80;99.90
21123;DHT22;10719;48.130;11.630;2022-12-18T09:35:39;-4.70;99.90
21123;DHT22;10719;48.130;11.630;2022-12-18T09:38:04;-4.60;99.90
21123;DHT22;10719;48.130;11.630;2022-12-18T09:40:47;-4.60;99.90
21123;DHT22;10719;48.130;11.630;2022-12-18T09:43:22;-4.70;99.90
21123;DHT22;10719;48.130;11.630;2022-12-18T09:45:53;-4.80;99.90
21123;DHT22;10719;48.130;11.630;2022-12-18T09:48:26;-4.90;99.90
21123;DHT22;10719;48.130;11.630;2022-12-18T09:50:56;-4.70;99.90
21123;DHT22;10719;48.130;11.630;2022-12-18T09:53:27;-4.40;99.90
21123;DHT22;10719;48.130;11.630;2022-12-18T09:55:56;-4.20;99.90
21123;DHT22;10719;48.130;11.630;2022-12-18T09:58:30;-4.20;99.90
21123;DHT22;10719;48.130;11.630;2022-12-18T10:00:57;-3.90;99.90
21123;DHT22;10719;48.130;11.630;2022-12-18T10:03:23;-3.90;99.90
21123;DHT22;10719;48.130;11.630;2022-12-18T10:06:13;-4.10;99.90
21123;DHT22;10719;48.130;11.630;2022-12-18T10:17:03;-4.20;99.90
21123;DHT22;10719;48.130;11.630;2022-12-18T10:20:02;-4.10;99.90
21123;DHT22;10719;48.130;11.630;2022-12-18T10:22:50;-4.10;99.90
21123;DHT22;10719;48.130;11.630;2022-12-18T10:25:55;-4.10;99.90
21123;DHT22;10719;48.130;11.630;2022-12-18T10:28:24;-4.30;99.90
21123;DHT22;10719;48.130;11.630;2022-12-18T10:30:50;-4.40;99.90
21123;DHT22;10719;48.130;11.630;2022-12-18T10:33:19;-4.50;99.90
21123;DHT22;10719;48.130;11.630;2022-12-18T10:35:48;-4.50;99.90
21123;DHT22;10719;48.130;11.630;2022-12-18T10:41:02;-4.70;99.90
21123;DHT22;10719;48.130;11.630;2022-12-18T10:43:35;-4.70;99.90
21123;DHT22;10719;48.130;11.630;2022-12-18T10:51:07;-4.60;99.90
21123;DHT22;10719;48.130;11.630;2022-12-18T10:53:35;-4.50;99.90
21123;DHT22;10719;48.130;11.630;2022-12-18T10:56:04;-4.30;99.90
21123;DHT22;10719;48.130;11.630;2022-12-18T10:58:32;-4.50;99.90
21123;DHT22;10719;48.130;11.630;2022-12-18T11:01:08;-4.60;99.90
21123;DHT22;10719;48.130;11.630;2022-12-18T11:06:18;-4.80;99.90
21123;DHT22;10719;48.130;11.630;2022-12-18T11:08:59;-4.70;99.90
21123;DHT22;10719;48.130;11.630;2022-12-18T11:11:25;-4.50;99.90
21123;DHT22;10719;48.130;11.630;2022-12-18T11:14:05;-4.60;99.90
21123;DHT22;10719;48.130;11.630;2022-12-18T11:16:42;-4.40;99.90
21123;DHT22;10719;48.130;11.630;2022-12-18T11:19:30;-4.40;99.90
21123;DHT22;10719;48.130;11.630;2022-12-18T11:21:57;-4.60;99.90
21123;DHT22;10719;48.130;11.630;2022-12-18T11:26:53;-4.50;99.90
21123;DHT22;10719;48.130;11.630;2022-12-18T11:29:27;-4.60;99.90
21123;DHT22;10719;48.130;11.630;2022-12-18T11:32:21;-4.50;99.90
21123;DHT22;10719;48.130;11.630;2022-12-18T11:35:04;-4.70;99.90
21123;DHT22;10719;48.130;11.630;2022-12-18T11:37:33;-4.80;99.90
21123;DHT22;10719;48.130;11.630;2022-12-18T11:40:24;-4.60;99.90
21123;DHT22;10719;48.130;11.630;2022-12-18T11:43:00;-4.40;99.90
21123;DHT22;10719;48.130;11.630;2022-12-18T11:45:33;-4.50;99.90
21123;DHT22;10719;48.130;11.630;2022-12-18T11:48:23;-4.30;99.90
21123;DHT22;10719;48.130;11.630;2022-12-18T11:50:52;-4.50;99.90
21123;DHT22;10719;48.130;11.630;2022-12-18T11:53:19;-4.10;99.90
21123;DHT22;10719;48.130;11.630;2022-12-18T11:58:46;-4.50;99.90
21123;DHT22;10719;48.130;11.630;2022-12-18T12:15:54;-4.60;99.90
21123;DHT22;10719;48.130;11.630;2022-12-18T12:18:29;-4.50;99.90
21123;DHT22;10719;48.130;11.630;2022-12-18T12:23:47;-4.60;99.90
21123;DHT22;10719;48.130;11.630;2022-12-18T12:34:18;-4.40;99.90
21123;DHT22;10719;48.130;11.630;2022-12-18T12:36:58;-4.60;99.90
21123;DHT22;10719;48.130;11.630;2022-12-18T12:39:36;-4.60;99.90
21123;DHT22;10719;48.130;11.630;2022-12-18T12:42:08;-4.40;99.90
21123;DHT22;10719;48.130;11.630;2022-12-18T12:44:59;-4.30;99.90
21123;DHT22;10719;48.130;11.630;2022-12-18T12:47:32;-4.50;99.90
21123;DHT22;10719;48.130;11.630;2022-12-18T12:50:03;-4.70;99.90
21123;DHT22;10719;48.130;11.630;2022-12-18T12:52:39;-4.40;99.90
21123;DHT22;10719;48.130;11.630;2022-12-18T12:55:14;-4.60;99.90
21123;DHT22;10719;48.130;11.630;2022-12-18T12:57:48;-4.50;99.90
21123;DHT22;10719;48.130;11.630;2022-12-18T13:00:18;-4.60;99.90
21123;DHT22;10719;48.130;11.630;2022-12-18T13:03:18;-4.70;99.90
21123;DHT22;10719;48.130;11.630;2022-12-18T13:06:00;-4.20;99.90
21123;DHT22;10719;48.130;11.630;2022-12-18T13:08:30;-4.40;99.90
21123;DHT22;10719;48.130;11.630;2022-12-18T13:10:58;-4.40;99.90
21123;DHT22;10719;48.130;11.630;2022-12-18T13:13:54;-4.40;99.90
21123;DHT22;10719;48.130;11.630;2022-12-18T13:16:21;-4.20;99.90
21123;DHT22;10719;48.130;11.630;2022-12-18T13:18:55;-4.00;99.90
21123;DHT22;10719;48.130;11.630;2022-12-18T13:21:24;-4.20;99.90
21123;DHT22;10719;48.130;11.630;2022-12-18T13:23:53;-4.10;99.90
21123;DHT22;10719;48.130;11.630;2022-12-18T13:39:21;-4.30;99.90
21123;DHT22;10719;48.130;11.630;2022-12-18T13:47:04;-4.40;99.90
21123;DHT22;10719;48.130;11.630;2022-12-18T13:49:38;-4.60;99.90
21123;DHT22;10719;48.130;11.630;2022-12-18T13:52:26;-4.60;99.90
21123;DHT22;10719;48.130;11.630;2022-12-18T13:54:54;-4.60;99.90
21123;DHT22;10719;48.130;11.630;2022-12-18T13:57:37;-4.50;99.90
21123;DHT22;10719;48.130;11.630;2022-12-18T14:02:48;-4.40;99.90
21123;DHT22;10719;48.130;11.630;2022-12-18T14:05:28;-4.60;99.90
21123;DHT22;10719;48.130;11.630;2022-12-18T14:07:59;-4.50;99.90
21123;DHT22;10719;48.130;11.630;2022-12-18T14:10:26;-4.60;99.90
21123;DHT22;10719;48.130;11.630;2022-12-18T14:12:51;-4.40;99.90
21123;DHT22;10719;48.130;11.630;2022-12-18T14:15:42;-4.50;99.90
21123;DHT22;10719;48.130;11.630;2022-12-18T14:20:57;-4.50;99.90
21123;DHT22;10719;48.130;11.630;2022-12-18T14:25:52;-4.70;99.90
21123;DHT22;10719;48.130;11.630;2022-12-18T14:28:17;-4.70;99.90
21123;DHT22;10719;48.130;11.630;2022-12-18T14:30:44;-4.70;99.90
21123;DHT22;10719;48.130;11.630;2022-12-18T14:33:13;-4.70;99.90
21123;DHT22;10719;48.130;11.630;2022-12-18T14:35:51;-4.70;99.90
21123;DHT22;10719;48.130;11.630;2022-12-18T14:41:12;-4.80;99.90
21123;DHT22;10719;48.130;11.630;2022-12-18T14:43:40;-4.80;99.90
21123;DHT22;10719;48.130;11.630;2022-12-18T14:46:36;-4.70;99.90
21123;DHT22;10719;48.130;11.630;2022-12-18T14:49:17;-4.80;99.90
21123;DHT22;10719;48.130;11.630;2022-12-18T14:52:01;-5.00;99.90
21123;DHT22;10719;48.130;11.630;2022-12-18T14:54:28;-4.90;99.90
21123;DHT22;10719;48.130;11.630;2022-12-18T14:57:00;-4.90;99.90
21123;DHT22;10719;48.130;11.630;2022-12-18T14:59:27;-4.90;99.90
21123;DHT22;10719;48.130;11.630;2022-12-18T15:02:01;-4.70;99.90
21123;DHT22;10719;48.130;11.630;2022-12-18T15:04:36;-4.90;99.90
21123;DHT22;10719;48.130;11.630;2022-12-18T15:07:05;-4.80;99.90
21123;DHT22;10719;48.130;11.630;2022-12-18T15:09:33;-5.00;99.90
21123;DHT22;10719;48.130;11.630;2022-12-18T15:11:59;-5.00;99.90
21123;DHT22;10719;48.130;11.630;2022-12-18T15:14:40;-5.00;99.90
21123;DHT22;10719;48.130;11.630;2022-12-18T15:17:21;-4.90;99.90
21123;DHT22;10719;48.130;11.630;2022-12-18T15:19:48;-4.80;99.90
21123;DHT22;10719;48.130;11.630;2022-12-18T15:22:21;-4.70;99.90
21123;DHT22;10719;48.130;11.630;2022-12-18T15:24:47;-4.80;99.90
21123;DHT22;10719;48.130;11.630;2022-12-18T15:27:23;-4.90;99.90
21123;DHT22;10719;48.130;11.630;2022-12-18T15:32:34;-5.10;99.90
21123;DHT22;10719;48.130;11.630;2022-12-18T15:35:16;-5.10;99.90
21123;DHT22;10719;48.130;11.630;2022-12-18T15:37:42;-5.10;99.90
21123;DHT22;10719;48.130;11.630;2022-12-18T15:40:15;-5.10;99.90
21123;DHT22;10719;48.130;11.630;2022-12-18T15:42:41;-5.20;99.90
21123;DHT22;10719;48.130;11.630;2022-12-18T15:45:26;-5.10;99.90
21123;DHT22;10719;48.130;11.630;2022-12-18T15:47:52;-5.20;99.90
21123;DHT22;10719;48.130;11.630;2022-12-18T15:50:18;-5.10;99.90
21123;DHT22;10719;48.130;11.630;2022-12-18T15:52:45;-5.20;99.90
21123;DHT22;10719;48.130;11.630;2022-12-18T15:55:23;-5.20;99.90
21123;DHT22;10719;48.130;11.630;2022-12-18T15:58:09;-4.90;99.90
21123;DHT22;10719;48.130;11.630;2022-12-18T16:00:36;-5.00;99.90
21123;DHT22;10719;48.130;11.630;2022-12-18T16:03:04;-5.10;99.90
21123;DHT22;10719;48.130;11.630;2022-12-18T16:05:30;-5.20;99.90
21123;DHT22;10719;48.130;11.630;2022-12-18T16:07:56;-5.20;99.90
21123;DHT22;10719;48.130;11.630;2022-12-18T16:10:22;-5.10;99.90
21123;DHT22;10719;48.130;11.630;2022-12-18T16:12:48;-5.30;99.90
21123;DHT22;10719;48.130;11.630;2022-12-18T16:15:14;-5.20;99.90
21123;DHT22;10719;48.130;11.630;2022-12-18T16:17:44;-5.30;99.90
21123;DHT22;10719;48.130;11.630;2022-12-18T16:20:18;-5.30;99.90
21123;DHT22;10719;48.130;11.630;2022-12-18T16:22:44;-5.30;99.90
21123;DHT22;10719;48.130;11.630;2022-12-18T16:25:24;-5.30;99.90
21123;DHT22;10719;48.130;11.630;2022-12-18T16:27:50;-5.30;99.90
21123;DHT22;10719;48.130;11.630;2022-12-18T16:30:19;-5.30;99.90
21123;DHT22;10719;48.130;11.630;2022-12-18T16:32:45;-5.30;99.90
21123;DHT22;10719;48.130;11.630;2022-12-18T16:35:15;-5.30;99.90
21123;DHT22;10719;48.130;11.630;2022-12-18T16:37:42;-5.30;99.90
21123;DHT22;10719;48.130;11.630;2022-12-18T16:40:11;-5.30;99.90
21123;DHT22;10719;48.130;11.630;2022-12-18T16:42:38;-5.30;99.90
21123;DHT22;10719;48.130;11.630;2022-12-18T16:45:06;-5.30;99.90
21123;DHT22;10719;48.130;11.630;2022-12-18T16:47:32;-5.40;99.90
21123;DHT22;10719;48.130;11.630;2022-12-18T16:49:58;-5.30;99.90
21123;DHT22;10719;48.130;11.630;2022-12-18T16:52:24;-5.30;99.90
21123;DHT22;10719;48.130;11.630;2022-12-18T16:54:50;-5.30;99.90
21123;DHT22;10719;48.130;11.630;2022-12-18T16:57:17;-5.20;99.90
21123;DHT22;10719;48.130;11.630;2022-12-18T16:59:44;-5.30;99.90
21123;DHT22;10719;48.130;11.630;2022-12-18T17:02:17;-5.30;99.90
21123;DHT22;10719;48.130;11.630;2022-12-18T17:04:44;-5.20;99.90
21123;DHT22;10719;48.130;11.630;2022-12-18T17:07:09;-5.30;99.90
21123;DHT22;10719;48.130;11.630;2022-12-18T17:09:36;-5.30;99.90
21123;DHT22;10719;48.130;11.630;2022-12-18T17:12:02;-5.30;99.90
21123;DHT22;10719;48.130;11.630;2022-12-18T17:14:28;-5.40;99.90